createdAt,value
2019-01-05T00:00:22.431Z,93.46
2019-01-05T00:01:22.420Z,93.66
2019-01-05T00:02:23.322Z,93.71
2019-01-05T00:03:22.334Z,93.50
2019-01-05T00:04:22.326Z,93.50
2019-01-05T00:05:22.314Z,93.29
2019-01-05T00:06:22.317Z,93.60
2019-01-05T00:07:22.315Z,93.08
2019-01-05T00:08:22.279Z,93.15
2019-01-05T00:09:22.270Z,93.15
2019-01-05T00:10:22.259Z,93.04
2019-01-05T00:11:22.249Z,93.46
2019-01-05T00:12:30.968Z,93.25
2019-01-05T00:13:22.224Z,92.94
2019-01-05T00:14:22.224Z,93.15
2019-01-05T00:15:22.204Z,93.35
2019-01-05T00:16:22.190Z,93.15
2019-01-05T00:17:22.200Z,93.04
2019-01-05T00:18:22.169Z,93.04
2019-01-05T00:19:22.157Z,93.15
2019-01-05T00:20:22.151Z,93.25
2019-01-05T00:21:22.136Z,92.43
2019-01-05T00:22:22.149Z,92.53
2019-01-05T00:23:22.114Z,92.43
2019-01-05T00:24:22.106Z,92.32
2019-01-05T00:25:22.091Z,92.38
2019-01-05T00:26:22.081Z,92.84
2019-01-05T00:27:22.092Z,92.80
2019-01-05T00:28:22.058Z,92.38
2019-01-05T00:29:22.047Z,92.49
2019-01-05T00:30:22.041Z,92.38
2019-01-05T00:31:22.024Z,92.38
2019-01-05T00:32:22.045Z,92.43
2019-01-05T00:33:22.003Z,92.43
2019-01-05T00:34:21.990Z,93.46
2019-01-05T00:35:21.983Z,93.25
2019-01-05T00:36:21.969Z,92.94
2019-01-05T00:37:21.957Z,93.15
2019-01-05T00:38:21.968Z,93.35
2019-01-05T00:39:21.936Z,92.94
2019-01-05T00:40:21.924Z,93.35
2019-01-05T00:41:21.916Z,93.35
2019-01-05T00:42:21.903Z,93.46
2019-01-05T00:43:21.914Z,92.84
2019-01-05T00:44:21.880Z,92.84
2019-01-05T00:45:21.870Z,93.41
2019-01-05T00:46:21.858Z,93.77
2019-01-05T00:47:21.854Z,93.62
2019-01-05T00:48:21.860Z,93.31
2019-01-05T00:49:21.826Z,93.46
2019-01-05T00:50:21.817Z,93.31
2019-01-05T00:51:21.805Z,93.10
2019-01-05T00:52:21.794Z,93.41
2019-01-05T00:53:21.814Z,93.00
2019-01-05T00:54:21.773Z,92.38
2019-01-05T00:55:21.758Z,93.10
2019-01-05T00:56:21.748Z,93.35
2019-01-05T00:57:21.737Z,92.90
2019-01-05T00:58:21.762Z,93.10
2019-01-05T00:59:21.715Z,92.84
2019-01-05T01:00:21.705Z,92.69
2019-01-05T01:01:21.691Z,93.31
2019-01-05T01:02:21.680Z,93.10
2019-01-05T01:03:21.670Z,92.59
2019-01-05T01:04:21.684Z,92.49
2019-01-05T01:05:21.648Z,92.18
2019-01-05T01:06:21.637Z,92.28
2019-01-05T01:07:21.626Z,92.69
2019-01-05T01:08:21.617Z,92.59
2019-01-05T01:09:21.627Z,92.59
2019-01-05T01:10:21.599Z,92.07
2019-01-05T01:11:21.581Z,92.49
2019-01-05T01:12:21.570Z,92.28
2019-01-05T01:13:21.559Z,92.38
2019-01-05T01:14:21.572Z,92.18
2019-01-05T01:15:21.541Z,92.38
2019-01-05T01:16:21.526Z,92.49
2019-01-05T01:17:21.516Z,92.55
2019-01-05T01:18:21.504Z,92.80
2019-01-05T01:19:21.522Z,92.69
2019-01-05T01:20:21.482Z,92.59
2019-01-05T01:21:21.473Z,92.49
2019-01-05T01:22:21.460Z,92.28
2019-01-05T01:23:21.448Z,93.16
2019-01-05T01:24:21.482Z,92.38
2019-01-05T01:25:21.431Z,92.59
2019-01-05T01:26:21.415Z,92.59
2019-01-05T01:27:21.406Z,92.18
2019-01-05T01:28:21.394Z,92.38
2019-01-05T01:29:21.382Z,92.65
2019-01-05T01:30:21.393Z,92.55
2019-01-05T01:31:21.362Z,92.65
2019-01-05T01:32:21.348Z,92.44
2019-01-05T01:33:21.338Z,92.18
2019-01-05T01:34:21.325Z,92.24
2019-01-05T01:35:21.338Z,92.76
2019-01-05T01:36:21.308Z,92.65
2019-01-05T01:37:21.295Z,92.44
2019-01-05T01:38:21.283Z,91.82
2019-01-05T01:39:21.280Z,91.61
2019-01-05T01:40:21.282Z,91.61
2019-01-05T01:41:21.248Z,92.44
2019-01-05T01:42:21.248Z,92.55
2019-01-05T01:43:21.229Z,92.85
2019-01-05T01:44:21.215Z,92.65
2019-01-05T01:45:21.229Z,92.13
2019-01-05T01:46:21.195Z,92.49
2019-01-05T01:47:21.182Z,92.34
2019-01-05T01:48:21.175Z,92.44
2019-01-05T01:49:21.160Z,92.76
2019-01-05T01:50:21.171Z,92.55
2019-01-05T01:51:21.137Z,92.34
2019-01-05T01:52:30.989Z,92.03
2019-01-05T01:53:21.115Z,92.76
2019-01-05T01:54:21.105Z,92.76
2019-01-05T01:55:21.130Z,92.76
2019-01-05T01:56:21.082Z,92.44
2019-01-05T01:57:21.076Z,92.24
2019-01-05T01:58:21.062Z,92.55
2019-01-05T01:59:21.053Z,92.24
2019-01-05T02:00:21.040Z,92.44
2019-01-05T02:01:21.049Z,92.85
2019-01-05T02:02:21.019Z,92.34
2019-01-05T02:03:21.007Z,92.44
2019-01-05T02:04:20.997Z,92.24
2019-01-05T02:05:20.984Z,92.24
2019-01-05T02:06:20.995Z,92.76
2019-01-05T02:07:20.962Z,92.34
2019-01-05T02:08:20.950Z,92.13
2019-01-05T02:09:20.940Z,92.44
2019-01-05T02:10:20.929Z,92.34
2019-01-05T02:11:20.940Z,92.34
2019-01-05T02:12:20.905Z,92.34
2019-01-05T02:13:20.895Z,92.44
2019-01-05T02:14:20.886Z,92.34
2019-01-05T02:15:20.879Z,92.34
2019-01-05T02:16:20.885Z,92.85
2019-01-05T02:17:20.851Z,92.96
2019-01-05T02:18:20.840Z,93.06
2019-01-05T02:19:20.832Z,92.85
2019-01-05T02:20:20.819Z,93.16
2019-01-05T02:21:20.841Z,92.34
2019-01-05T02:22:20.794Z,92.76
2019-01-05T02:23:20.782Z,92.85
2019-01-05T02:24:20.772Z,92.76
2019-01-05T02:25:20.762Z,92.71
2019-01-05T02:26:20.771Z,92.61
2019-01-05T02:27:20.739Z,92.85
2019-01-05T02:28:20.727Z,92.30
2019-01-05T02:29:20.724Z,92.30
2019-01-05T02:30:20.713Z,91.67
2019-01-05T02:31:20.722Z,92.40
2019-01-05T02:32:20.689Z,92.40
2019-01-05T02:33:20.676Z,92.96
2019-01-05T02:34:20.662Z,92.30
2019-01-05T02:35:20.652Z,92.19
2019-01-05T02:36:20.672Z,92.65
2019-01-05T02:37:20.633Z,92.61
2019-01-05T02:38:20.617Z,92.71
2019-01-05T02:39:20.607Z,92.40
2019-01-05T02:40:20.596Z,92.61
2019-01-05T02:41:20.588Z,92.19
2019-01-05T02:42:20.600Z,92.34
2019-01-05T02:43:20.563Z,93.12
2019-01-05T02:44:20.552Z,93.23
2019-01-05T02:45:20.539Z,93.37
2019-01-05T02:46:20.534Z,92.91
2019-01-05T02:47:20.539Z,92.34
2019-01-05T02:48:20.511Z,92.55
2019-01-05T02:49:20.509Z,92.50
2019-01-05T02:50:20.486Z,92.96
2019-01-05T02:51:20.472Z,92.34
2019-01-05T02:52:28.772Z,92.30
2019-01-05T02:53:20.452Z,92.81
2019-01-05T02:54:20.442Z,92.91
2019-01-05T02:55:20.433Z,93.23
2019-01-05T02:56:20.420Z,93.12
2019-01-05T02:57:20.434Z,92.19
2019-01-05T02:58:20.398Z,93.23
2019-01-05T02:59:20.386Z,92.91
2019-01-05T03:00:20.376Z,93.12
2019-01-05T03:01:20.361Z,93.37
2019-01-05T03:02:20.377Z,93.12
2019-01-05T03:03:20.343Z,92.91
2019-01-05T03:04:20.335Z,92.71
2019-01-05T03:05:20.321Z,93.02
2019-01-05T03:06:20.311Z,93.23
2019-01-05T03:07:20.320Z,92.81
2019-01-05T03:08:20.286Z,93.23
2019-01-05T03:09:20.276Z,93.12
2019-01-05T03:10:20.264Z,93.23
2019-01-05T03:11:20.251Z,93.64
2019-01-05T03:12:20.266Z,93.64
2019-01-05T03:13:20.229Z,93.33
2019-01-05T03:14:20.218Z,93.33
2019-01-05T03:15:20.207Z,93.68
2019-01-05T03:16:20.196Z,93.64
2019-01-05T03:17:20.214Z,93.33
2019-01-05T03:18:20.176Z,93.23
2019-01-05T03:19:20.164Z,93.43
2019-01-05T03:20:20.150Z,93.12
2019-01-05T03:21:20.139Z,93.74
2019-01-05T03:22:20.128Z,93.68
2019-01-05T03:23:20.140Z,93.23
2019-01-05T03:24:20.112Z,93.12
2019-01-05T03:25:20.096Z,93.12
2019-01-05T03:26:20.083Z,93.33
2019-01-05T03:27:20.074Z,92.81
2019-01-05T03:28:20.084Z,93.23
2019-01-05T03:29:20.053Z,92.30
2019-01-05T03:30:20.044Z,92.30
2019-01-05T03:31:20.035Z,92.30
2019-01-05T03:32:20.019Z,92.19
2019-01-05T03:33:20.028Z,92.09
2019-01-05T03:34:19.994Z,92.09
2019-01-05T03:35:19.986Z,92.50
2019-01-05T03:36:19.974Z,92.50
2019-01-05T03:37:19.961Z,92.40
2019-01-05T03:38:19.975Z,92.09
2019-01-05T03:39:19.942Z,92.81
2019-01-05T03:40:19.928Z,92.30
2019-01-05T03:41:19.922Z,92.30
2019-01-05T03:42:19.906Z,92.50
2019-01-05T03:43:19.895Z,92.61
2019-01-05T03:44:19.913Z,93.02
2019-01-05T03:45:19.877Z,93.02
2019-01-05T03:46:19.861Z,92.81
2019-01-05T03:47:19.857Z,93.02
2019-01-05T03:48:19.840Z,91.99
2019-01-05T03:49:19.849Z,92.81
2019-01-05T03:50:19.818Z,93.23
2019-01-05T03:51:19.808Z,92.50
2019-01-05T03:52:19.796Z,92.19
2019-01-05T03:53:19.789Z,92.30
2019-01-05T03:54:19.798Z,92.09
2019-01-05T03:55:19.764Z,92.30
2019-01-05T03:56:19.752Z,92.30
2019-01-05T03:57:19.760Z,92.19
2019-01-05T03:58:19.736Z,92.40
2019-01-05T03:59:19.743Z,92.09
2019-01-05T04:00:19.710Z,92.71
2019-01-05T04:01:19.697Z,92.30
2019-01-05T04:02:19.700Z,92.40
2019-01-05T04:03:19.674Z,92.40
2019-01-05T04:04:19.686Z,92.09
2019-01-05T04:05:19.652Z,92.09
2019-01-05T04:06:19.645Z,92.09
2019-01-05T04:07:19.632Z,92.50
2019-01-05T04:08:19.620Z,92.50
2019-01-05T04:09:19.631Z,92.09
2019-01-05T04:10:19.597Z,92.09
2019-01-05T04:11:19.590Z,92.25
2019-01-05T04:12:19.575Z,92.30
2019-01-05T04:13:19.564Z,92.30
2019-01-05T04:14:19.556Z,92.30
2019-01-05T04:15:19.575Z,92.30
2019-01-05T04:16:19.534Z,92.40
2019-01-05T04:17:19.521Z,92.30
2019-01-05T04:18:19.510Z,92.19
2019-01-05T04:19:19.500Z,92.30
2019-01-05T04:20:19.517Z,92.25
2019-01-05T04:21:19.478Z,92.97
2019-01-05T04:22:19.469Z,93.23
2019-01-05T04:23:19.458Z,92.57
2019-01-05T04:24:19.443Z,92.25
2019-01-05T04:25:19.457Z,92.61
2019-01-05T04:26:19.426Z,93.02
2019-01-05T04:27:19.415Z,92.97
2019-01-05T04:28:20.455Z,92.97
2019-01-05T04:29:19.390Z,93.02
2019-01-05T04:30:19.405Z,93.18
2019-01-05T04:31:19.366Z,93.54
2019-01-05T04:32:19.359Z,93.23
2019-01-05T04:33:19.344Z,93.29
2019-01-05T04:34:19.334Z,92.67
2019-01-05T04:35:19.326Z,92.97
2019-01-05T04:36:19.334Z,93.60
2019-01-05T04:37:19.302Z,92.87
2019-01-05T04:38:19.290Z,93.29
2019-01-05T04:39:19.280Z,92.97
2019-01-05T04:40:19.267Z,92.97
2019-01-05T04:41:19.291Z,93.08
2019-01-05T04:42:19.246Z,93.29
2019-01-05T04:43:19.234Z,92.67
2019-01-05T04:44:19.224Z,93.08
2019-01-05T04:45:19.212Z,92.57
2019-01-05T04:46:19.226Z,93.18
2019-01-05T04:47:19.192Z,92.21
2019-01-05T04:48:19.178Z,92.87
2019-01-05T04:49:19.168Z,93.08
2019-01-05T04:50:19.157Z,92.57
2019-01-05T04:51:19.170Z,93.49
2019-01-05T04:52:19.134Z,93.08
2019-01-05T04:53:19.135Z,93.08
2019-01-05T04:54:19.137Z,93.08
2019-01-05T04:55:19.114Z,93.39
2019-01-05T04:56:19.118Z,93.60
2019-01-05T04:57:19.081Z,93.76
2019-01-05T04:58:19.071Z,93.60
2019-01-05T04:59:19.059Z,93.39
2019-01-05T05:00:19.047Z,93.70
2019-01-05T05:01:19.060Z,93.39
2019-01-05T05:02:19.028Z,93.18
2019-01-05T05:03:19.014Z,93.08
2019-01-05T05:04:19.006Z,93.18
2019-01-05T05:05:18.996Z,93.29
2019-01-05T05:06:18.981Z,92.97
2019-01-05T05:07:18.994Z,93.49
2019-01-05T05:08:18.961Z,93.24
2019-01-05T05:09:18.947Z,93.14
2019-01-05T05:10:18.941Z,92.93
2019-01-05T05:11:18.928Z,93.45
2019-01-05T05:12:18.939Z,93.24
2019-01-05T05:13:18.904Z,93.60
2019-01-05T05:14:18.893Z,93.55
2019-01-05T05:15:18.884Z,93.39
2019-01-05T05:16:18.871Z,94.69
2019-01-05T05:17:18.886Z,93.45
2019-01-05T05:18:18.851Z,93.55
2019-01-05T05:19:18.839Z,93.70
2019-01-05T05:20:18.834Z,94.59
2019-01-05T05:21:18.817Z,93.66
2019-01-05T05:22:18.830Z,93.55
2019-01-05T05:23:18.800Z,93.14
2019-01-05T05:24:18.786Z,93.66
2019-01-05T05:25:18.771Z,94.28
2019-01-05T05:26:18.760Z,93.87
2019-01-05T05:27:18.750Z,94.28
2019-01-05T05:28:18.762Z,94.79
2019-01-05T05:29:18.728Z,94.28
2019-01-05T05:30:18.717Z,94.59
2019-01-05T05:31:18.709Z,94.48
2019-01-05T05:32:18.695Z,94.28
2019-01-05T05:33:18.715Z,94.48
2019-01-05T05:34:18.674Z,94.22
2019-01-05T05:35:18.661Z,94.69
2019-01-05T05:36:18.654Z,94.79
2019-01-05T05:37:18.644Z,94.90
2019-01-05T05:38:18.652Z,94.59
2019-01-05T05:39:18.618Z,94.28
2019-01-05T05:40:18.609Z,94.18
2019-01-05T05:41:18.598Z,94.59
2019-01-05T05:42:18.585Z,94.79
2019-01-05T05:43:18.598Z,94.18
2019-01-05T05:44:18.562Z,94.18
2019-01-05T05:45:18.556Z,94.59
2019-01-05T05:46:18.541Z,94.18
2019-01-05T05:47:18.529Z,94.79
2019-01-05T05:48:18.541Z,94.59
2019-01-05T05:49:18.510Z,94.48
2019-01-05T05:50:18.497Z,94.59
2019-01-05T05:51:18.488Z,94.38
2019-01-05T05:52:18.479Z,94.59
2019-01-05T05:53:18.487Z,94.13
2019-01-05T05:54:18.454Z,94.59
2019-01-05T05:55:18.445Z,94.38
2019-01-05T05:56:18.434Z,95.00
2019-01-05T05:57:18.420Z,94.59
2019-01-05T05:58:18.528Z,94.79
2019-01-05T05:59:18.399Z,94.90
2019-01-05T06:00:18.389Z,95.00
2019-01-05T06:01:18.376Z,94.96
2019-01-05T06:02:18.371Z,94.65
2019-01-05T06:03:18.354Z,94.54
2019-01-05T06:04:18.365Z,94.59
2019-01-05T06:05:18.337Z,95.00
2019-01-05T06:06:18.326Z,94.90
2019-01-05T06:07:18.313Z,95.00
2019-01-05T06:08:18.299Z,94.75
2019-01-05T06:09:18.310Z,94.85
2019-01-05T06:10:18.279Z,94.75
2019-01-05T06:11:18.268Z,95.10
2019-01-05T06:12:18.255Z,94.85
2019-01-05T06:13:18.244Z,94.75
2019-01-05T06:14:18.279Z,94.75
2019-01-05T06:15:18.225Z,94.96
2019-01-05T06:16:18.212Z,94.65
2019-01-05T06:17:18.204Z,95.06
2019-01-05T06:18:18.192Z,95.06
2019-01-05T06:19:18.179Z,95.27
2019-01-05T06:20:18.190Z,95.57
2019-01-05T06:21:18.158Z,95.17
2019-01-05T06:22:18.145Z,95.57
2019-01-05T06:23:18.138Z,95.57
2019-01-05T06:24:26.486Z,95.57
2019-01-05T06:25:18.139Z,95.27
2019-01-05T06:27:10.258Z,95.48
2019-01-05T06:28:10.246Z,94.96
2019-01-05T06:29:10.233Z,94.85
2019-01-05T06:30:10.244Z,94.96
2019-01-05T06:31:10.214Z,94.85
2019-01-05T06:32:10.202Z,94.85
2019-01-05T06:33:10.188Z,94.71
2019-01-05T06:34:10.177Z,95.12
2019-01-05T06:35:10.188Z,94.96
2019-01-05T06:36:10.161Z,94.50
2019-01-05T06:37:10.148Z,94.92
2019-01-05T06:38:10.132Z,94.71
2019-01-05T06:39:10.120Z,93.98
2019-01-05T06:40:10.132Z,94.60
2019-01-05T06:41:10.100Z,94.50
2019-01-05T06:42:10.087Z,94.50
2019-01-05T06:43:10.077Z,94.19
2019-01-05T06:44:10.070Z,94.92
2019-01-05T06:45:10.084Z,94.81
2019-01-05T06:46:10.046Z,94.81
2019-01-05T06:47:10.034Z,95.02
2019-01-05T06:48:10.022Z,94.81
2019-01-05T06:49:10.012Z,94.71
2019-01-05T06:50:10.022Z,94.81
2019-01-05T06:51:09.993Z,94.81
2019-01-05T06:52:09.977Z,94.81
2019-01-05T06:53:09.966Z,94.60
2019-01-05T06:54:09.956Z,94.81
2019-01-05T06:55:09.946Z,94.92
2019-01-05T06:56:09.960Z,95.32
2019-01-05T06:57:09.925Z,95.43
2019-01-05T06:58:09.911Z,95.32
2019-01-05T06:59:09.899Z,95.53
2019-01-05T07:00:09.888Z,95.22
2019-01-05T07:01:09.899Z,95.12
2019-01-05T07:02:09.866Z,95.32
2019-01-05T07:03:09.858Z,95.02
2019-01-05T07:04:09.844Z,95.18
2019-01-05T07:05:09.835Z,95.18
2019-01-05T07:06:09.844Z,95.22
2019-01-05T07:07:09.814Z,95.70
2019-01-05T07:08:09.800Z,95.07
2019-01-05T07:09:09.791Z,95.28
2019-01-05T07:10:09.780Z,94.87
2019-01-05T07:11:09.799Z,95.49
2019-01-05T07:12:09.757Z,95.39
2019-01-05T07:13:09.745Z,95.18
2019-01-05T07:14:09.756Z,94.77
2019-01-05T07:15:09.727Z,94.87
2019-01-05T07:16:09.716Z,95.39
2019-01-05T07:17:09.722Z,95.07
2019-01-05T07:18:09.688Z,96.11
2019-01-05T07:19:09.679Z,96.05
2019-01-05T07:20:09.666Z,95.07
2019-01-05T07:21:09.654Z,95.18
2019-01-05T07:22:09.666Z,95.18
2019-01-05T07:23:09.633Z,94.97
2019-01-05T07:24:09.623Z,95.59
2019-01-05T07:25:09.609Z,94.87
2019-01-05T07:26:09.602Z,94.56
2019-01-05T07:27:09.616Z,95.49
2019-01-05T07:28:09.579Z,95.39
2019-01-05T07:29:09.568Z,95.14
2019-01-05T07:30:09.571Z,94.87
2019-01-05T07:31:09.566Z,94.46
2019-01-05T07:32:09.558Z,94.35
2019-01-05T07:33:09.522Z,94.77
2019-01-05T07:34:09.511Z,94.67
2019-01-05T07:35:09.501Z,95.18
2019-01-05T07:36:09.495Z,95.39
2019-01-05T07:37:09.516Z,95.49
2019-01-05T07:38:09.465Z,95.70
2019-01-05T07:39:09.455Z,95.49
2019-01-05T07:40:09.443Z,95.18
2019-01-05T07:41:09.442Z,95.18
2019-01-05T07:42:09.421Z,95.39
2019-01-05T07:43:09.434Z,95.49
2019-01-05T07:44:09.399Z,95.39
2019-01-05T07:45:09.388Z,95.39
2019-01-05T07:46:09.379Z,95.18
2019-01-05T07:47:09.366Z,95.28
2019-01-05T07:48:09.378Z,95.18
2019-01-05T07:49:09.343Z,95.45
2019-01-05T07:50:09.336Z,94.72
2019-01-05T07:51:09.325Z,95.45
2019-01-05T07:52:09.310Z,95.14
2019-01-05T07:53:09.324Z,95.45
2019-01-05T07:54:09.289Z,95.34
2019-01-05T07:55:09.279Z,95.03
2019-01-05T07:56:09.266Z,94.93
2019-01-05T07:57:09.258Z,95.45
2019-01-05T07:58:09.278Z,94.72
2019-01-05T07:59:09.240Z,94.82
2019-01-05T08:00:09.223Z,94.42
2019-01-05T08:01:09.211Z,94.72
2019-01-05T08:02:09.207Z,95.65
2019-01-05T08:03:09.214Z,95.14
2019-01-05T08:04:09.181Z,95.03
2019-01-05T08:05:09.205Z,95.65
2019-01-05T08:06:09.168Z,95.55
2019-01-05T08:07:09.144Z,95.55
2019-01-05T08:08:09.155Z,94.93
2019-01-05T08:09:09.128Z,95.34
2019-01-05T08:10:09.111Z,95.03
2019-01-05T08:11:09.102Z,95.45
2019-01-05T08:12:09.088Z,95.24
2019-01-05T08:13:09.115Z,95.34
2019-01-05T08:14:09.071Z,95.24
2019-01-05T08:15:09.057Z,95.30
2019-01-05T08:16:09.046Z,95.03
2019-01-05T08:17:09.037Z,95.34
2019-01-05T08:18:09.028Z,95.14
2019-01-05T08:19:09.034Z,95.03
2019-01-05T08:20:09.023Z,95.30
2019-01-05T08:21:08.990Z,94.68
2019-01-05T08:22:08.982Z,94.72
2019-01-05T08:23:08.967Z,94.72
2019-01-05T08:24:08.984Z,94.82
2019-01-05T08:25:08.949Z,95.14
2019-01-05T08:26:08.935Z,94.82
2019-01-05T08:27:08.923Z,94.72
2019-01-05T08:28:08.916Z,94.42
2019-01-05T08:29:08.922Z,94.72
2019-01-05T08:30:08.891Z,94.78
2019-01-05T08:31:08.878Z,94.78
2019-01-05T08:32:08.900Z,94.72
2019-01-05T08:33:08.856Z,94.89
2019-01-05T08:34:18.304Z,94.78
2019-01-05T08:35:08.834Z,94.78
2019-01-05T08:36:08.823Z,94.89
2019-01-05T08:37:17.271Z,94.89
2019-01-05T08:38:08.801Z,94.37
2019-01-05T08:39:08.791Z,94.78
2019-01-05T08:40:08.805Z,94.78
2019-01-05T08:41:08.767Z,94.57
2019-01-05T08:42:08.761Z,94.57
2019-01-05T08:43:08.749Z,94.37
2019-01-05T08:44:08.737Z,94.68
2019-01-05T08:45:08.750Z,95.09
2019-01-05T08:46:08.748Z,94.27
2019-01-05T08:47:08.701Z,94.68
2019-01-05T08:48:08.691Z,94.68
2019-01-05T08:49:08.678Z,94.68
2019-01-05T08:50:08.689Z,94.57
2019-01-05T08:51:08.733Z,94.78
2019-01-05T08:52:08.647Z,94.78
2019-01-05T08:53:08.636Z,94.68
2019-01-05T08:54:08.624Z,94.17
2019-01-05T08:55:08.637Z,94.68
2019-01-05T08:56:08.603Z,94.68
2019-01-05T08:57:08.590Z,94.47
2019-01-05T08:58:08.581Z,94.68
2019-01-05T08:59:08.570Z,94.78
2019-01-05T09:00:08.585Z,94.89
2019-01-05T09:01:08.546Z,94.68
2019-01-05T09:02:08.537Z,94.99
2019-01-05T09:03:08.527Z,94.89
2019-01-05T09:04:08.512Z,94.37
2019-01-05T09:05:08.750Z,94.37
2019-01-05T09:06:08.499Z,94.68
2019-01-05T09:07:08.486Z,94.68
2019-01-05T09:08:08.468Z,94.68
2019-01-05T09:09:08.462Z,94.68
2019-01-05T09:10:08.469Z,94.37
2019-01-05T09:11:08.436Z,94.17
2019-01-05T09:12:08.451Z,94.57
2019-01-05T09:13:08.414Z,94.17
2019-01-05T09:14:08.401Z,94.37
2019-01-05T09:15:17.982Z,94.57
2019-01-05T09:16:17.048Z,94.68
2019-01-05T09:17:08.371Z,94.68
2019-01-05T09:18:08.359Z,94.78
2019-01-05T09:19:08.559Z,94.78
2019-01-05T09:20:08.339Z,94.37
2019-01-05T09:21:08.348Z,94.68
2019-01-05T09:22:08.316Z,94.78
2019-01-05T09:23:08.301Z,94.68
2019-01-05T09:24:08.289Z,94.32
2019-01-05T09:25:08.279Z,94.57
2019-01-05T09:26:08.293Z,94.37
2019-01-05T09:27:20.694Z,94.78
2019-01-05T09:28:08.250Z,94.37
2019-01-05T09:29:17.763Z,94.78
2019-01-05T09:30:08.223Z,94.78
2019-01-05T09:31:09.087Z,94.57
2019-01-05T09:32:08.388Z,94.17
2019-01-05T09:33:08.606Z,94.68
2019-01-05T09:34:08.182Z,94.53
2019-01-05T09:35:08.178Z,94.78
2019-01-05T09:36:08.183Z,94.53
2019-01-05T09:37:08.145Z,94.95
2019-01-05T09:38:08.135Z,94.84
2019-01-05T09:39:08.189Z,94.37
2019-01-05T09:40:08.113Z,94.17
2019-01-05T09:41:08.123Z,94.74
2019-01-05T09:42:08.117Z,94.32
2019-01-05T09:43:08.083Z,94.74
2019-01-05T09:44:08.080Z,94.32
2019-01-05T09:45:08.062Z,94.64
2019-01-05T09:46:08.232Z,94.12
2019-01-05T09:47:08.034Z,94.32
2019-01-05T09:48:08.024Z,94.43
2019-01-05T09:49:08.014Z,94.43
2019-01-05T09:50:17.334Z,93.91
2019-01-05T09:51:07.991Z,94.32
2019-01-05T09:52:08.009Z,94.53
2019-01-05T09:53:07.968Z,94.43
2019-01-05T09:54:07.959Z,94.53
2019-01-05T09:55:07.947Z,94.32
2019-01-05T09:56:07.934Z,94.02
2019-01-05T09:57:07.946Z,94.43
2019-01-05T09:58:07.917Z,93.91
2019-01-05T09:59:07.905Z,94.53
2019-01-05T10:00:07.892Z,93.71
2019-01-05T10:01:07.879Z,94.43
2019-01-05T10:02:07.900Z,94.53
2019-01-05T10:03:07.861Z,94.02
2019-01-05T10:04:07.891Z,93.60
2019-01-05T10:05:08.833Z,94.23
2019-01-05T10:06:07.922Z,94.23
2019-01-05T10:07:07.834Z,94.23
2019-01-05T10:08:07.801Z,93.98
2019-01-05T10:09:07.793Z,94.08
2019-01-05T10:10:07.778Z,93.09
2019-01-05T10:11:07.771Z,93.40
2019-01-05T10:12:07.903Z,93.71
2019-01-05T10:13:17.293Z,94.23
2019-01-05T10:14:07.736Z,93.71
2019-01-05T10:15:07.724Z,94.64
2019-01-05T10:16:07.716Z,94.23
2019-01-05T10:17:07.728Z,94.74
2019-01-05T10:18:07.689Z,93.77
2019-01-05T10:19:07.680Z,94.12
2019-01-05T10:20:07.668Z,93.98
2019-01-05T10:21:07.657Z,94.49
2019-01-05T10:22:07.670Z,93.98
2019-01-05T10:23:07.635Z,94.12
2019-01-05T10:24:07.626Z,93.40
2019-01-05T10:25:07.613Z,93.05
2019-01-05T10:26:17.023Z,93.15
2019-01-05T10:27:07.633Z,94.02
2019-01-05T10:28:07.584Z,93.56
2019-01-05T10:29:07.570Z,94.08
2019-01-05T10:30:07.560Z,94.53
2019-01-05T10:31:07.552Z,94.59
2019-01-05T10:32:07.543Z,93.56
2019-01-05T10:33:07.549Z,94.08
2019-01-05T10:34:07.512Z,93.56
2019-01-05T10:35:07.501Z,93.71
2019-01-05T10:36:07.531Z,93.15
2019-01-05T10:37:07.485Z,94.18
2019-01-05T10:38:07.489Z,93.56
2019-01-05T10:39:07.459Z,93.66
2019-01-05T10:40:07.447Z,93.05
2019-01-05T10:41:07.435Z,93.56
2019-01-05T10:42:07.424Z,93.40
2019-01-05T10:43:07.437Z,92.88
2019-01-05T10:44:16.193Z,93.05
2019-01-05T10:45:07.396Z,92.74
2019-01-05T10:46:07.380Z,93.30
2019-01-05T10:47:07.368Z,94.23
2019-01-05T10:48:07.542Z,93.30
2019-01-05T10:49:07.350Z,93.30
2019-01-05T10:50:07.341Z,93.50
2019-01-05T10:51:07.347Z,93.35
2019-01-05T10:52:07.394Z,93.09
2019-01-05T10:53:07.406Z,93.35
2019-01-05T10:54:07.293Z,94.49
2019-01-05T10:55:07.285Z,93.25
2019-01-05T10:56:07.275Z,94.18
2019-01-05T10:57:07.261Z,93.46
2019-01-05T10:58:07.363Z,93.35
2019-01-05T10:59:07.240Z,93.46
2019-01-05T11:00:07.224Z,93.19
2019-01-05T11:01:07.214Z,93.35
2019-01-05T11:02:07.205Z,93.56
2019-01-05T11:03:07.217Z,93.46
2019-01-05T11:04:07.179Z,93.56
2019-01-05T11:05:07.195Z,93.35
2019-01-05T11:06:07.171Z,93.71
2019-01-05T11:07:07.149Z,93.05
2019-01-05T11:08:17.437Z,93.35
2019-01-05T11:09:16.872Z,93.40
2019-01-05T11:10:07.119Z,93.19
2019-01-05T11:11:07.103Z,93.05
2019-01-05T11:12:07.094Z,93.66
2019-01-05T11:13:07.079Z,93.56
2019-01-05T11:14:07.110Z,92.53
2019-01-05T11:15:07.066Z,92.63
2019-01-05T11:16:07.054Z,93.05
2019-01-05T11:17:07.070Z,93.05
2019-01-05T11:18:07.024Z,92.84
2019-01-05T11:19:07.043Z,93.05
2019-01-05T11:20:07.092Z,92.74
2019-01-05T11:21:06.991Z,92.74
2019-01-05T11:22:06.988Z,92.63
2019-01-05T11:23:06.971Z,92.84
2019-01-05T11:24:06.980Z,93.11
2019-01-05T11:25:06.959Z,93.15
2019-01-05T11:26:06.985Z,92.84
2019-01-05T11:27:06.924Z,92.63
2019-01-05T11:28:06.916Z,92.53
2019-01-05T11:29:06.923Z,92.43
2019-01-05T11:30:06.903Z,92.94
2019-01-05T11:31:06.880Z,93.25
2019-01-05T11:32:06.879Z,93.35
2019-01-05T11:33:06.860Z,93.35
2019-01-05T11:34:06.874Z,93.35
2019-01-05T11:35:06.836Z,93.56
2019-01-05T11:36:06.825Z,93.35
2019-01-05T11:37:06.813Z,93.46
2019-01-05T11:38:06.805Z,92.94
2019-01-05T11:39:06.823Z,92.94
2019-01-05T11:40:06.789Z,93.21
2019-01-05T11:41:06.814Z,93.05
2019-01-05T11:42:06.757Z,93.05
2019-01-05T11:43:06.760Z,92.74
2019-01-05T11:44:06.769Z,92.90
2019-01-05T11:45:06.756Z,93.15
2019-01-05T11:46:06.717Z,93.15
2019-01-05T11:47:06.708Z,92.63
2019-01-05T11:48:06.691Z,92.53
2019-01-05T11:49:06.697Z,92.63
2019-01-05T11:50:07.456Z,92.74
2019-01-05T11:51:06.661Z,92.63
2019-01-05T11:52:06.652Z,92.84
2019-01-05T11:53:06.636Z,93.01
2019-01-05T11:54:06.624Z,92.90
2019-01-05T11:55:06.640Z,92.63
2019-01-05T11:56:06.612Z,92.53
2019-01-05T11:57:06.679Z,92.90
2019-01-05T11:58:06.593Z,92.94
2019-01-05T11:59:06.569Z,92.74
2019-01-05T12:00:06.590Z,92.90
2019-01-05T12:01:06.588Z,92.80
2019-01-05T12:02:06.548Z,93.15
2019-01-05T12:03:06.523Z,92.63
2019-01-05T12:04:06.513Z,92.94
2019-01-05T12:05:06.542Z,92.84
2019-01-05T12:06:06.491Z,92.84
2019-01-05T12:07:06.482Z,92.53
2019-01-05T12:08:06.473Z,92.90
2019-01-05T12:09:07.928Z,92.74
2019-01-05T12:10:06.456Z,92.84
2019-01-05T12:11:06.471Z,92.84
2019-01-05T12:12:06.425Z,92.90
2019-01-05T12:13:06.413Z,92.80
2019-01-05T12:14:06.402Z,92.49
2019-01-05T12:15:06.394Z,93.01
2019-01-05T12:16:06.404Z,92.90
2019-01-05T12:17:06.370Z,92.69
2019-01-05T12:18:06.358Z,92.59
2019-01-05T12:19:06.348Z,92.74
2019-01-05T12:20:06.339Z,93.01
2019-01-05T12:21:06.374Z,92.80
2019-01-05T12:22:06.313Z,93.11
2019-01-05T12:23:06.307Z,92.74
2019-01-05T12:24:06.291Z,92.63
2019-01-05T12:25:06.282Z,92.94
2019-01-05T12:26:06.295Z,93.35
2019-01-05T12:27:06.259Z,92.84
2019-01-05T12:28:06.248Z,92.69
2019-01-05T12:29:06.238Z,92.59
2019-01-05T12:30:06.228Z,92.49
2019-01-05T12:31:06.241Z,92.69
2019-01-05T12:32:06.202Z,93.21
2019-01-05T12:33:06.200Z,93.31
2019-01-05T12:34:06.181Z,93.11
2019-01-05T12:35:06.170Z,93.25
2019-01-05T12:36:06.215Z,92.90
2019-01-05T12:37:06.262Z,92.69
2019-01-05T12:38:06.137Z,93.05
2019-01-05T12:39:06.125Z,93.11
2019-01-05T12:40:06.114Z,93.35
2019-01-05T12:41:06.107Z,93.41
2019-01-05T12:42:06.114Z,93.66
2019-01-05T12:43:06.084Z,93.62
2019-01-05T12:44:06.070Z,93.41
2019-01-05T12:45:06.063Z,93.11
2019-01-05T12:46:06.048Z,93.21
2019-01-05T12:47:06.059Z,92.69
2019-01-05T12:48:06.025Z,92.59
2019-01-05T12:49:06.014Z,92.90
2019-01-05T12:50:06.002Z,92.90
2019-01-05T12:51:05.992Z,93.31
2019-01-05T12:52:06.004Z,93.21
2019-01-05T12:53:05.971Z,93.21